createdAt,value
2023-07-23T00:01:23.739Z,11.68
2023-07-23T00:03:50.233Z,13.15
2023-07-23T00:06:18.992Z,11.30
2023-07-23T00:08:50.092Z,15.13
2023-07-23T00:11:16.729Z,15.35
2023-07-23T00:13:43.715Z,14.43
2023-07-23T00:16:12.821Z,14.05
2023-07-23T00:18:39.232Z,16.63
2023-07-23T00:21:08.067Z,9.18
2023-07-23T00:23:34.444Z,11.15
2023-07-23T00:26:00.825Z,10.35
2023-07-23T00:28:27.315Z,15.63
2023-07-23T00:30:53.726Z,14.30
2023-07-23T00:33:20.366Z,9.75
2023-07-23T00:35:46.860Z,12.50
2023-07-23T00:38:13.274Z,13.85
2023-07-23T00:40:39.641Z,17.45
2023-07-23T00:43:06.167Z,10.65
2023-07-23T00:45:32.815Z,10.35
2023-07-23T00:48:00.415Z,12.13
2023-07-23T00:50:27.216Z,13.40
2023-07-23T00:52:53.800Z,9.50
2023-07-23T00:55:20.410Z,13.18
2023-07-23T00:57:46.952Z,10.75
2023-07-23T01:00:13.793Z,21.52
2023-07-23T01:02:40.310Z,13.00
2023-07-23T01:05:08.030Z,14.63
2023-07-23T01:07:35.211Z,12.77
2023-07-23T01:10:02.957Z,16.60
2023-07-23T01:12:29.977Z,11.02
2023-07-23T01:14:59.568Z,12.98
2023-07-23T01:17:29.255Z,12.25
2023-07-23T01:20:03.376Z,14.15
2023-07-23T01:22:29.858Z,13.25
2023-07-23T01:24:59.609Z,10.23
2023-07-23T01:27:35.804Z,16.27
2023-07-23T01:30:02.266Z,13.48
2023-07-23T01:32:31.515Z,11.77
2023-07-23T01:35:04.858Z,12.70
2023-07-23T01:37:31.273Z,11.40
2023-07-23T01:39:57.958Z,13.90
2023-07-23T01:42:24.858Z,10.32
2023-07-23T01:44:54.050Z,18.30
2023-07-23T01:47:20.545Z,17.83
2023-07-23T01:49:47.173Z,14.93
2023-07-23T01:52:13.698Z,16.05
2023-07-23T01:54:40.106Z,18.83
2023-07-23T01:57:06.575Z,18.08
2023-07-23T01:59:33.259Z,14.52
2023-07-23T02:01:59.807Z,17.08
2023-07-23T02:04:28.626Z,22.58
2023-07-23T02:06:55.271Z,14.90
2023-07-23T02:09:21.774Z,25.35
2023-07-23T02:11:48.354Z,17.00
2023-07-23T02:14:14.917Z,16.40
2023-07-23T02:19:30.308Z,20.35
2023-07-23T02:22:02.125Z,20.63
2023-07-23T02:27:02.135Z,18.85
2023-07-23T02:29:30.925Z,17.65
2023-07-23T02:32:00.896Z,17.92
2023-07-23T02:34:30.465Z,17.38
2023-07-23T02:37:00.016Z,17.00
2023-07-23T02:39:28.866Z,16.50
2023-07-23T02:41:55.403Z,20.05
2023-07-23T02:44:21.863Z,17.52
2023-07-23T02:49:40.935Z,19.52
2023-07-23T02:52:07.458Z,19.88
2023-07-23T02:54:34.599Z,15.45
2023-07-23T02:57:01.179Z,19.75
2023-07-23T02:59:30.555Z,18.42
2023-07-23T03:02:03.293Z,14.60
2023-07-23T03:04:29.725Z,16.60
2023-07-23T03:07:05.036Z,16.95
2023-07-23T03:09:31.580Z,16.85
2023-07-23T03:12:01.398Z,22.70
2023-07-23T03:14:36.689Z,13.85
2023-07-23T03:17:03.561Z,16.02
2023-07-23T03:19:40.945Z,17.10
2023-07-23T03:22:07.663Z,19.13
2023-07-23T03:24:35.144Z,17.90
2023-07-23T03:27:04.317Z,15.27
2023-07-23T03:29:30.801Z,15.00
2023-07-23T03:32:00.292Z,17.40
2023-07-23T03:34:29.437Z,16.20
2023-07-23T03:36:55.894Z,16.75
2023-07-23T03:39:22.338Z,15.98
2023-07-23T03:41:49.102Z,19.45
2023-07-23T03:44:15.571Z,19.33
2023-07-23T03:47:00.767Z,18.52
2023-07-23T03:49:27.443Z,14.20
2023-07-23T04:40:18.297Z,20.42
2023-07-23T04:46:36.880Z,15.85
2023-07-23T04:49:15.230Z,16.67
2023-07-23T04:51:44.758Z,18.73
2023-07-23T04:54:14.532Z,14.88
2023-07-23T04:56:40.971Z,18.50
2023-07-23T04:59:46.583Z,20.17
2023-07-23T05:02:14.470Z,17.67
2023-07-23T05:08:50.502Z,23.60
2023-07-23T05:11:27.428Z,18.58
2023-07-23T05:24:16.048Z,20.70
2023-07-23T05:33:36.806Z,19.45
2023-07-23T06:03:07.672Z,15.73
2023-07-23T06:05:36.967Z,15.57
2023-07-23T06:08:06.245Z,14.38
2023-07-23T06:13:33.033Z,11.18
2023-07-23T06:16:13.020Z,20.63
2023-07-23T06:18:44.806Z,17.33
2023-07-23T06:24:04.900Z,12.45
2023-07-23T06:26:31.403Z,19.90
2023-07-23T06:32:27.262Z,10.80
2023-07-23T06:35:05.829Z,12.55
2023-07-23T06:37:34.973Z,16.55
2023-07-23T06:40:01.575Z,11.93
2023-07-23T06:42:36.751Z,17.13
2023-07-23T06:45:07.787Z,16.30
2023-07-23T06:50:11.494Z,14.18
2023-07-23T06:50:35.222Z,15.88
2023-07-23T06:53:02.510Z,15.63
2023-07-23T06:55:40.121Z,13.43
2023-07-23T06:58:15.343Z,15.73
2023-07-23T07:00:44.023Z,16.20
2023-07-23T07:03:13.701Z,18.40
2023-07-23T07:05:41.780Z,11.43
2023-07-23T07:21:31.709Z,13.70
2023-07-23T07:23:58.420Z,17.85
2023-07-23T07:26:26.918Z,15.98
2023-07-23T07:28:56.000Z,16.90
2023-07-23T07:31:37.730Z,11.18
2023-07-23T07:34:10.464Z,11.98
2023-07-23T07:36:36.997Z,13.70
2023-07-23T07:39:17.538Z,18.35
2023-07-23T07:42:13.867Z,9.85
2023-07-23T07:44:43.334Z,19.42
2023-07-23T07:47:20.476Z,12.15
2023-07-23T07:49:47.816Z,12.75
2023-07-23T07:52:19.762Z,13.05
2023-07-23T07:55:04.774Z,9.65
2023-07-23T07:57:54.448Z,14.85
2023-07-23T08:00:21.335Z,12.07
2023-07-23T08:05:52.420Z,11.65
2023-07-23T08:08:23.489Z,10.15
2023-07-23T08:14:43.263Z,9.98
2023-07-23T08:17:13.270Z,10.05
2023-07-23T08:19:44.430Z,9.60
2023-07-23T08:22:13.746Z,11.38
2023-07-23T08:24:46.324Z,13.82
2023-07-23T08:27:17.583Z,8.27
2023-07-23T08:29:50.796Z,8.95
2023-07-23T08:32:23.812Z,10.00
2023-07-23T08:34:56.103Z,7.57
2023-07-23T08:37:26.015Z,8.43
2023-07-23T08:39:53.444Z,6.50
2023-07-23T08:42:57.328Z,6.95
2023-07-23T08:46:05.944Z,7.75
2023-07-23T08:48:42.887Z,11.57
2023-07-23T08:51:10.870Z,11.50
2023-07-23T08:53:40.514Z,7.63
2023-07-23T08:56:11.757Z,10.98
2023-07-23T08:58:43.034Z,12.60
2023-07-23T09:01:10.284Z,7.15
2023-07-23T09:03:37.119Z,10.68
2023-07-23T09:06:12.972Z,9.45
2023-07-23T09:11:34.628Z,8.43
2023-07-23T09:14:09.084Z,7.18
2023-07-23T09:16:38.735Z,8.27
2023-07-23T09:19:08.283Z,7.30
2023-07-23T09:21:37.810Z,6.43
2023-07-23T09:24:04.434Z,5.65
2023-07-23T09:26:36.345Z,10.25
2023-07-23T09:29:08.756Z,9.20
2023-07-23T09:31:41.857Z,6.45
2023-07-23T09:34:08.840Z,6.90
2023-07-23T09:36:42.738Z,8.70
2023-07-23T09:39:09.480Z,7.20
2023-07-23T09:41:44.614Z,6.82
2023-07-23T09:44:25.368Z,6.60
2023-07-23T09:46:58.809Z,9.15
2023-07-23T09:49:33.558Z,6.85
2023-07-23T09:52:07.326Z,7.93
2023-07-23T09:54:48.851Z,12.20
2023-07-23T09:57:30.982Z,9.63
2023-07-23T09:59:58.935Z,7.60
2023-07-23T10:10:20.982Z,7.70
2023-07-23T10:12:47.740Z,8.00
2023-07-23T10:15:14.399Z,9.93
2023-07-23T10:17:47.700Z,6.30
2023-07-23T10:20:19.626Z,10.15
2023-07-23T10:22:49.035Z,6.78
2023-07-23T10:25:36.871Z,8.25
2023-07-23T10:28:09.663Z,7.07
2023-07-23T10:30:37.188Z,7.30
2023-07-23T10:33:13.570Z,11.23
2023-07-23T10:35:55.551Z,9.55
2023-07-23T10:38:23.061Z,9.88
2023-07-23T10:40:49.730Z,7.30
2023-07-23T10:43:16.584Z,9.88
2023-07-23T10:45:48.771Z,9.70
2023-07-23T10:48:18.376Z,7.20
2023-07-23T10:53:59.372Z,6.38
2023-07-23T10:56:26.950Z,8.68
2023-07-23T10:59:09.746Z,7.05
2023-07-23T11:01:44.801Z,5.80
2023-07-23T11:04:16.407Z,7.22
2023-07-23T11:06:58.197Z,5.32
2023-07-23T11:11:56.764Z,6.93
2023-07-23T11:14:27.918Z,5.13
2023-07-23T11:17:12.224Z,7.40
2023-07-23T11:19:38.657Z,8.07
2023-07-23T11:22:05.904Z,7.28
2023-07-23T11:24:36.037Z,5.28
2023-07-23T11:27:05.672Z,9.10
2023-07-23T11:29:35.180Z,5.80
2023-07-23T11:32:08.119Z,4.45
2023-07-23T11:34:34.686Z,5.07
2023-07-23T11:37:08.650Z,4.05
2023-07-23T11:39:35.098Z,4.72
2023-07-23T11:42:04.148Z,5.03
2023-07-23T11:44:34.683Z,4.90
2023-07-23T11:47:03.423Z,4.63
2023-07-23T11:49:30.165Z,8.85
2023-07-23T11:51:59.103Z,5.32
2023-07-23T11:54:25.492Z,5.03
2023-07-23T11:56:53.281Z,5.70
2023-07-23T11:59:22.427Z,5.22
2023-07-23T12:01:49.090Z,5.03
2023-07-23T12:04:15.644Z,5.63
2023-07-23T12:07:09.319Z,5.25
2023-07-23T12:09:35.943Z,6.50
2023-07-23T12:12:05.826Z,8.52
2023-07-23T12:14:36.734Z,6.03
2023-07-23T12:17:06.072Z,5.47
2023-07-23T12:19:33.518Z,8.82
2023-07-23T12:22:13.583Z,7.35
2023-07-23T12:24:40.568Z,5.93
2023-07-23T12:27:07.130Z,7.05
2023-07-23T12:29:36.154Z,9.52
2023-07-23T12:32:09.661Z,8.68
2023-07-23T12:34:36.521Z,11.68
2023-07-23T12:37:09.212Z,6.63
2023-07-23T12:39:39.235Z,6.15
2023-07-23T12:42:09.279Z,5.10
2023-07-23T12:44:36.036Z,8.85
2023-07-23T12:47:10.264Z,6.90
2023-07-23T12:52:41.767Z,7.63
2023-07-23T12:58:18.573Z,7.75
2023-07-23T13:00:45.162Z,8.43
2023-07-23T13:03:34.983Z,6.97
2023-07-23T13:06:15.570Z,8.05
2023-07-23T13:08:45.047Z,7.97
2023-07-23T13:11:22.647Z,5.90
2023-07-23T13:13:51.766Z,6.72
2023-07-23T13:19:53.056Z,7.53
2023-07-23T13:22:28.544Z,5.53
2023-07-23T13:25:20.435Z,7.20
2023-07-23T13:28:22.361Z,7.50
2023-07-23T13:36:39.680Z,8.15
2023-07-23T13:39:07.389Z,6.53
2023-07-23T13:41:36.505Z,8.43
2023-07-23T13:47:00.373Z,7.22
2023-07-23T13:52:15.544Z,8.98
2023-07-23T13:55:24.812Z,5.93
2023-07-23T14:01:39.000Z,5.93
2023-07-23T14:04:25.093Z,5.95
2023-07-23T14:09:48.148Z,5.55
2023-07-23T14:15:16.979Z,10.68
2023-07-23T14:17:54.148Z,5.40
2023-07-23T14:20:21.119Z,6.45
2023-07-23T14:22:47.552Z,9.50
2023-07-23T14:25:19.045Z,7.28
2023-07-23T14:28:18.773Z,7.10
2023-07-23T14:31:06.861Z,5.47
2023-07-23T14:36:13.629Z,7.35
2023-07-23T14:41:38.211Z,5.80
2023-07-23T14:47:19.750Z,5.32
2023-07-23T14:49:56.443Z,6.50
2023-07-23T14:52:37.172Z,6.75
2023-07-23T14:55:17.354Z,6.55
2023-07-23T14:57:55.938Z,8.80
2023-07-23T15:00:44.728Z,9.80
2023-07-23T15:03:36.475Z,6.90
2023-07-23T15:06:06.068Z,7.32
2023-07-23T15:08:59.178Z,6.28
2023-07-23T15:11:32.696Z,7.32
2023-07-23T15:14:27.748Z,7.65
2023-07-23T15:16:57.497Z,5.93
2023-07-23T15:19:25.674Z,5.93
2023-07-23T15:22:08.328Z,6.07
2023-07-23T15:27:44.669Z,7.00
2023-07-23T15:30:19.799Z,7.13
2023-07-23T15:32:46.382Z,7.22
2023-07-23T15:35:12.881Z,6.97
2023-07-23T15:37:46.471Z,7.30
2023-07-23T15:42:57.745Z,7.35
2023-07-23T15:45:25.748Z,6.43
2023-07-23T15:51:30.734Z,18.38
2023-07-23T15:54:02.076Z,7.32
2023-07-23T16:03:21.168Z,7.55
2023-07-23T16:05:50.446Z,6.78
2023-07-23T16:08:18.089Z,4.85
2023-07-23T16:10:46.235Z,5.38
2023-07-23T16:13:27.101Z,6.03
2023-07-23T16:15:56.666Z,5.20
2023-07-23T16:18:28.296Z,6.05
2023-07-23T16:20:54.928Z,5.90
2023-07-23T16:23:21.323Z,6.85
2023-07-23T16:26:06.778Z,14.60
2023-07-23T16:28:35.733Z,12.30
2023-07-23T16:31:02.377Z,7.22
2023-07-23T16:33:29.223Z,7.70
2023-07-23T16:36:17.133Z,4.18
2023-07-23T16:38:47.459Z,7.38
2023-07-23T16:41:22.984Z,4.75
2023-07-23T16:43:51.972Z,6.93
2023-07-23T16:46:18.578Z,8.07
2023-07-23T16:48:49.559Z,7.05
2023-07-23T16:51:20.245Z,5.50
2023-07-23T16:54:08.307Z,10.95
2023-07-23T16:56:37.791Z,8.60
2023-07-23T16:59:11.848Z,7.82
2023-07-23T17:01:38.347Z,7.68
2023-07-23T17:04:07.484Z,5.28
2023-07-23T17:06:38.394Z,7.38
2023-07-23T17:09:13.537Z,9.77
2023-07-23T17:11:39.945Z,7.07
2023-07-23T17:14:10.854Z,6.70
2023-07-23T17:16:40.499Z,8.05
2023-07-23T17:19:08.210Z,8.25
2023-07-23T17:21:42.576Z,8.88
2023-07-23T17:24:08.996Z,9.05
2023-07-23T17:26:39.238Z,9.52
2023-07-23T17:29:08.617Z,10.18
2023-07-23T17:31:55.868Z,9.20
2023-07-23T17:34:22.254Z,6.20
2023-07-23T17:37:13.140Z,9.90
2023-07-23T17:39:39.514Z,10.50
2023-07-23T17:42:08.812Z,12.02
2023-07-23T17:44:38.016Z,7.05
2023-07-23T17:47:07.816Z,7.15
2023-07-23T17:49:36.574Z,5.38
2023-07-23T17:52:03.191Z,6.28
2023-07-23T17:54:32.666Z,7.40
2023-07-23T17:57:07.439Z,8.45
2023-07-23T17:59:39.341Z,6.93
2023-07-23T18:02:16.713Z,6.05
2023-07-23T18:04:43.164Z,8.15
2023-07-23T18:07:09.644Z,6.13
2023-07-23T18:09:40.211Z,9.48
2023-07-23T18:12:11.746Z,8.10
2023-07-23T18:14:38.214Z,7.00
2023-07-23T18:17:10.465Z,7.57
2023-07-23T18:19:48.513Z,13.23
2023-07-23T18:22:14.957Z,9.07
2023-07-23T18:24:48.202Z,12.15
2023-07-23T18:27:16.983Z,7.15
2023-07-23T18:30:06.961Z,8.23
2023-07-23T18:33:56.796Z,10.02
2023-07-23T18:35:27.181Z,6.03
2023-07-23T18:37:53.629Z,8.70
2023-07-23T18:40:53.254Z,7.47
2023-07-23T18:43:18.265Z,12.40
2023-07-23T18:45:44.758Z,8.07
2023-07-23T18:48:13.953Z,8.40
2023-07-23T18:50:44.536Z,8.82
2023-07-23T18:53:13.394Z,6.50
2023-07-23T18:58:47.582Z,7.85
2023-07-23T19:01:14.059Z,7.00
2023-07-23T19:03:40.574Z,7.47
2023-07-23T19:06:11.149Z,8.82
2023-07-23T19:08:42.462Z,8.47
2023-07-23T19:11:08.976Z,6.35
2023-07-23T19:13:38.413Z,6.35
2023-07-23T19:16:09.835Z,6.05
2023-07-23T19:18:36.907Z,6.32
2023-07-23T19:21:03.852Z,6.50
2023-07-23T19:23:30.257Z,8.80
2023-07-23T19:25:59.339Z,6.18
2023-07-23T19:28:25.799Z,6.82
2023-07-23T19:30:57.834Z,4.57
2023-07-23T19:33:25.603Z,5.60
2023-07-23T19:35:53.654Z,8.48
2023-07-23T19:38:23.740Z,4.75
2023-07-23T19:40:50.424Z,7.90
2023-07-23T19:43:23.050Z,5.22
2023-07-23T19:45:59.675Z,6.43
2023-07-23T19:48:26.235Z,4.85
2023-07-23T19:50:52.646Z,6.38
2023-07-23T19:53:19.712Z,5.65
2023-07-23T19:55:49.070Z,6.10
2023-07-23T19:58:16.371Z,5.18
2023-07-23T20:00:49.760Z,6.05
2023-07-23T20:03:20.266Z,6.30
2023-07-23T20:09:06.114Z,5.20
2023-07-23T20:11:39.947Z,5.93
2023-07-23T20:14:09.233Z,5.22
2023-07-23T20:16:38.255Z,5.85
2023-07-23T20:19:04.736Z,5.75
2023-07-23T20:21:43.115Z,6.60
2023-07-23T20:24:17.400Z,4.68
2023-07-23T20:26:56.357Z,5.75
2023-07-23T20:29:23.125Z,5.57
2023-07-23T20:31:56.701Z,6.57
2023-07-23T20:34:28.640Z,7.78
2023-07-23T20:36:58.389Z,6.03
2023-07-23T20:39:25.485Z,5.93
2023-07-23T20:41:54.851Z,6.82
2023-07-23T20:44:21.256Z,6.30
2023-07-23T20:47:18.008Z,5.38
2023-07-23T20:49:34.775Z,5.10
2023-07-23T20:52:04.702Z,5.65
2023-07-23T20:54:31.121Z,6.18
2023-07-23T20:56:57.897Z,5.78
2023-07-23T20:59:27.612Z,5.78
2023-07-23T21:01:54.503Z,8.38
2023-07-23T21:04:21.070Z,6.00
2023-07-23T21:06:47.497Z,5.03
2023-07-23T21:09:17.057Z,6.22
2023-07-23T21:11:43.485Z,5.43
2023-07-23T21:14:13.126Z,6.00
2023-07-23T21:16:39.564Z,5.78
2023-07-23T21:19:08.586Z,5.60
2023-07-23T21:21:46.577Z,6.22
2023-07-23T21:24:30.622Z,4.28
2023-07-23T21:27:17.351Z,4.63
2023-07-23T21:29:45.429Z,5.32
2023-07-23T21:32:16.743Z,10.90
2023-07-23T21:34:43.155Z,4.85
2023-07-23T21:37:36.430Z,5.50
2023-07-23T21:40:02.995Z,6.10
2023-07-23T21:42:34.837Z,5.50
2023-07-23T21:45:01.291Z,5.70
2023-07-23T21:50:31.398Z,4.97
2023-07-23T21:53:03.494Z,8.70
2023-07-23T21:55:29.928Z,5.45
2023-07-23T21:57:56.360Z,6.38
2023-07-23T22:00:23.004Z,5.93
2023-07-23T22:02:49.571Z,5.82
2023-07-23T22:05:21.906Z,5.32
2023-07-23T22:07:53.255Z,7.93
2023-07-23T22:10:20.096Z,9.48
2023-07-23T22:12:46.592Z,4.85
2023-07-23T22:15:13.161Z,5.55
2023-07-23T22:17:39.614Z,6.35
2023-07-23T22:20:09.515Z,9.95
2023-07-23T22:22:38.472Z,5.97
2023-07-23T22:25:07.668Z,6.95
2023-07-23T22:27:34.106Z,6.25
2023-07-23T22:30:06.036Z,6.93
2023-07-23T22:32:38.387Z,10.00
2023-07-23T22:35:08.009Z,8.65
2023-07-23T22:37:34.516Z,8.10
2023-07-23T22:40:03.914Z,7.90
2023-07-23T22:42:30.367Z,8.82
2023-07-23T22:45:01.946Z,7.95
2023-07-23T22:49:55.957Z,7.13
2023-07-23T22:52:28.926Z,8.90
2023-07-23T22:54:55.484Z,9.88
2023-07-23T22:57:34.481Z,13.48
2023-07-23T23:00:11.194Z,8.65
2023-07-23T23:02:44.062Z,8.02
2023-07-23T23:05:16.846Z,8.43
2023-07-23T23:07:43.402Z,7.90
2023-07-23T23:10:14.935Z,10.43
2023-07-23T23:12:51.836Z,9.85
2023-07-23T23:15:18.272Z,10.00
2023-07-23T23:17:50.571Z,8.25
2023-07-23T23:20:19.880Z,10.18
2023-07-23T23:22:48.965Z,7.63
2023-07-23T23:25:18.476Z,9.35
2023-07-23T23:28:08.762Z,10.13
2023-07-23T23:33:55.239Z,8.05
2023-07-23T23:36:32.355Z,7.88
2023-07-23T23:39:02.638Z,7.82
2023-07-23T23:41:38.035Z,11.43
2023-07-23T23:44:07.247Z,8.05
2023-07-23T23:49:41.764Z,7.45
2023-07-23T23:52:23.047Z,11.30
2023-07-23T23:55:09.970Z,7.53
2023-07-23T23:58:00.217Z,8.68
